Fairlawn, Virginia
Current Conditions -  °F | °C
As of 11:15 AM on Wednesday 22 Oct 2014 (Local Time) from KPSK Reporting Station
Overcast Overcast  
Wind Chill: 45°   Ceiling: 1700
Heat Index: 49°   Visibility: 10mi
Dew Point: 43°   Wind: 10mph
Humidity: 79%   Direction: 320°NW
Pressure: 30.12"   Gusts: NA
Location:  37.1746°N, 80.6425°W
Report Text: KPSK 221515Z AUTO 32009KT 300V360 10SM OVC017 10/06 A3012 RMK AO2 T00950061
Loading
Personal Weather Stations






























Interactive Weather Map New forecast layout! Learn more

10-Day Weather Forecast

Advertisements
Track Severe Weather on mobile